createdAt,value
2022-08-17T00:00:54.122Z,16.91
2022-08-17T00:01:54.195Z,17.06
2022-08-17T00:02:54.113Z,16.90
2022-08-17T00:03:54.105Z,16.89
2022-08-17T00:04:54.114Z,16.99
2022-08-17T00:05:54.087Z,16.96
2022-08-17T00:06:54.109Z,16.96
2022-08-17T00:07:54.070Z,16.91
2022-08-17T00:08:54.060Z,16.97
2022-08-17T00:09:54.053Z,16.99
2022-08-17T00:10:54.045Z,16.86
2022-08-17T00:12:41.774Z,16.89
2022-08-17T00:12:55.339Z,16.91
2022-08-17T00:13:55.910Z,16.94
2022-08-17T00:14:54.015Z,17.06
2022-08-17T00:15:54.023Z,17.08
2022-08-17T00:16:56.367Z,17.04
2022-08-17T00:17:53.987Z,17.11
2022-08-17T00:19:07.119Z,17.05
2022-08-17T00:19:54.975Z,17.04
2022-08-17T00:20:53.967Z,16.99
2022-08-17T00:22:10.643Z,17.05
2022-08-17T00:22:54.953Z,17.04
2022-08-17T00:23:53.973Z,17.05
2022-08-17T00:24:53.938Z,17.08
2022-08-17T00:25:53.953Z,16.96
2022-08-17T00:26:53.946Z,16.96
2022-08-17T00:27:53.918Z,16.94
2022-08-17T00:28:53.904Z,17.04
2022-08-17T00:29:53.892Z,16.94
2022-08-17T00:30:53.906Z,16.97
2022-08-17T00:31:53.905Z,16.97
2022-08-17T00:33:14.005Z,16.97
2022-08-17T00:33:54.860Z,16.89
2022-08-17T00:34:53.855Z,16.84
2022-08-17T00:35:53.846Z,16.78
2022-08-17T00:36:53.865Z,16.58
2022-08-17T00:37:53.831Z,16.65
2022-08-17T00:38:53.822Z,16.68
2022-08-17T00:39:53.842Z,16.66
2022-08-17T00:40:55.923Z,16.69
2022-08-17T00:41:54.826Z,16.75
2022-08-17T00:42:53.791Z,16.79
2022-08-17T00:43:53.787Z,16.79
2022-08-17T00:44:53.785Z,16.87
2022-08-17T00:45:53.765Z,16.87
2022-08-17T00:46:53.786Z,16.81
2022-08-17T00:47:53.752Z,16.76
2022-08-17T00:48:53.747Z,16.68
2022-08-17T00:49:53.731Z,16.72
2022-08-17T00:50:53.728Z,16.61
2022-08-17T00:51:53.747Z,16.68
2022-08-17T00:52:53.707Z,16.78
2022-08-17T00:53:53.711Z,16.54
2022-08-17T00:54:53.699Z,16.65
2022-08-17T00:55:53.725Z,16.58
2022-08-17T00:56:53.714Z,16.66
2022-08-17T00:57:55.576Z,16.57
2022-08-17T00:58:54.717Z,16.56
2022-08-17T01:00:01.997Z,16.57
2022-08-17T01:00:54.772Z,16.60
2022-08-17T01:01:53.715Z,16.46
2022-08-17T01:02:53.863Z,16.56
2022-08-17T01:03:53.631Z,16.56
2022-08-17T01:04:53.633Z,16.56
2022-08-17T01:05:53.615Z,16.29
2022-08-17T01:06:53.643Z,16.15
2022-08-17T01:07:53.635Z,16.08
2022-08-17T01:08:57.656Z,16.09
2022-08-17T01:09:53.588Z,16.00
2022-08-17T01:11:00.381Z,16.02
2022-08-17T01:11:54.598Z,16.02
2022-08-17T01:12:53.565Z,15.95
2022-08-17T01:13:53.557Z,15.86
2022-08-17T01:14:53.538Z,15.92
2022-08-17T01:15:54.546Z,16.01
2022-08-17T01:16:53.552Z,16.12
2022-08-17T01:17:54.524Z,16.20
2022-08-17T01:18:53.516Z,16.16
2022-08-17T01:19:53.510Z,16.16
2022-08-17T01:20:53.510Z,16.23
2022-08-17T01:21:53.527Z,16.24
2022-08-17T01:22:53.492Z,16.21
2022-08-17T01:23:53.476Z,16.24
2022-08-17T01:24:53.471Z,16.32
2022-08-17T01:25:53.490Z,16.31
2022-08-17T01:26:53.485Z,16.28
2022-08-17T01:27:53.444Z,16.32
2022-08-17T01:28:54.491Z,16.23
2022-08-17T01:29:54.434Z,16.16
2022-08-17T01:30:57.420Z,16.20
2022-08-17T01:31:54.445Z,16.16
2022-08-17T01:32:53.413Z,16.15
2022-08-17T01:33:53.408Z,16.05
2022-08-17T01:34:53.389Z,15.98
2022-08-17T01:35:53.384Z,15.95
2022-08-17T01:36:53.398Z,15.95
2022-08-17T01:37:53.366Z,16.00
2022-08-17T01:38:53.357Z,15.94
2022-08-17T01:39:53.374Z,15.86
2022-08-17T01:40:57.652Z,15.83
2022-08-17T01:41:53.354Z,15.90
2022-08-17T01:43:26.211Z,15.97
2022-08-17T01:43:53.322Z,15.90
2022-08-17T01:44:53.306Z,15.91
2022-08-17T01:46:03.247Z,15.94
2022-08-17T01:46:54.318Z,15.97
2022-08-17T01:47:53.284Z,16.01
2022-08-17T01:48:53.303Z,15.97
2022-08-17T01:49:53.274Z,16.00
2022-08-17T01:50:53.261Z,16.02
2022-08-17T01:51:53.285Z,15.98
2022-08-17T01:52:53.245Z,16.00
2022-08-17T01:53:53.226Z,15.90
2022-08-17T01:54:54.235Z,15.97
2022-08-17T01:55:53.226Z,15.88
2022-08-17T01:56:53.247Z,15.95
2022-08-17T01:57:54.211Z,16.05
2022-08-17T01:58:53.237Z,16.00
2022-08-17T01:59:53.191Z,15.94
2022-08-17T02:01:00.532Z,15.86
2022-08-17T02:01:54.259Z,15.92
2022-08-17T02:02:53.175Z,15.91
2022-08-17T02:03:59.584Z,15.94
2022-08-17T02:04:54.161Z,15.82
2022-08-17T02:05:53.153Z,15.80
2022-08-17T02:06:54.611Z,15.86
2022-08-17T02:08:00.448Z,15.79
2022-08-17T02:09:01.639Z,15.82
2022-08-17T02:09:55.123Z,15.79
2022-08-17T02:10:53.133Z,15.70
2022-08-17T02:11:53.101Z,15.72
2022-08-17T02:12:53.271Z,15.61
2022-08-17T02:13:57.823Z,15.47
2022-08-17T02:14:54.075Z,15.42
2022-08-17T02:15:53.072Z,15.42
2022-08-17T02:16:53.079Z,15.31
2022-08-17T02:17:54.730Z,15.36
2022-08-17T02:18:53.058Z,15.33
2022-08-17T02:19:53.039Z,15.29
2022-08-17T02:20:53.033Z,15.33
2022-08-17T02:21:53.028Z,15.37
2022-08-17T02:22:53.058Z,15.40
2022-08-17T02:23:53.011Z,15.33
2022-08-17T02:24:59.568Z,15.44
2022-08-17T02:25:53.999Z,15.46
2022-08-17T02:26:52.997Z,15.44
2022-08-17T02:27:53.011Z,15.54
2022-08-17T02:28:52.978Z,15.54
2022-08-17T02:29:53.037Z,15.59
2022-08-17T02:31:01.434Z,15.59
2022-08-17T02:31:53.955Z,15.59
2022-08-17T02:32:52.969Z,15.62
2022-08-17T02:34:00.260Z,15.58
2022-08-17T02:34:53.933Z,15.55
2022-08-17T02:35:52.921Z,15.58
2022-08-17T02:36:52.919Z,15.57
2022-08-17T02:37:55.448Z,15.58
2022-08-17T02:38:52.949Z,15.59
2022-08-17T02:39:53.000Z,15.58
2022-08-17T02:40:52.880Z,15.57
2022-08-17T02:41:52.880Z,15.47
2022-08-17T02:42:52.894Z,15.39
2022-08-17T02:43:52.866Z,15.44
2022-08-17T02:44:52.856Z,15.40
2022-08-17T02:45:52.850Z,15.52
2022-08-17T02:46:52.835Z,15.37
2022-08-17T02:47:52.857Z,15.43
2022-08-17T02:48:52.829Z,15.39
2022-08-17T02:49:55.403Z,15.47
2022-08-17T02:50:52.812Z,15.40
2022-08-17T02:51:52.807Z,15.40
2022-08-17T02:53:01.536Z,15.46
2022-08-17T02:54:02.094Z,15.28
2022-08-17T02:54:53.786Z,15.29
2022-08-17T02:55:52.802Z,15.36
2022-08-17T02:56:52.783Z,15.31
2022-08-17T02:57:52.776Z,15.28
2022-08-17T02:58:52.745Z,15.15
2022-08-17T02:59:52.743Z,15.18
2022-08-17T03:00:52.734Z,15.15
2022-08-17T03:01:52.772Z,15.15
2022-08-17T03:02:52.849Z,15.14
2022-08-17T03:03:52.719Z,15.15
2022-08-17T03:04:52.696Z,15.14
2022-08-17T03:05:52.687Z,15.22
2022-08-17T03:06:52.680Z,15.22
2022-08-17T03:07:52.715Z,15.29
2022-08-17T03:08:52.663Z,15.28
2022-08-17T03:09:52.657Z,15.19
2022-08-17T03:10:52.660Z,15.00
2022-08-17T03:11:55.861Z,14.78
2022-08-17T03:12:52.679Z,14.84
2022-08-17T03:13:52.617Z,14.77
2022-08-17T03:14:52.613Z,14.85
2022-08-17T03:15:52.610Z,14.84
2022-08-17T03:16:52.599Z,14.81
2022-08-17T03:17:52.618Z,14.85
2022-08-17T03:18:52.608Z,14.94
2022-08-17T03:19:52.582Z,14.94
2022-08-17T03:20:52.571Z,14.89
2022-08-17T03:21:55.140Z,14.96
2022-08-17T03:22:53.248Z,15.09
2022-08-17T03:23:54.345Z,15.17
2022-08-17T03:24:52.557Z,15.14
2022-08-17T03:25:53.038Z,15.14
2022-08-17T03:26:52.544Z,15.09
2022-08-17T03:27:52.552Z,15.09
2022-08-17T03:28:52.532Z,15.09
2022-08-17T03:29:52.506Z,15.09
2022-08-17T03:30:52.499Z,15.03
2022-08-17T03:31:52.498Z,15.00
2022-08-17T03:32:52.828Z,14.99
2022-08-17T03:33:52.497Z,15.09
2022-08-17T03:34:52.468Z,14.94
2022-08-17T03:35:52.456Z,14.88
2022-08-17T03:36:52.453Z,14.88
2022-08-17T03:38:00.100Z,14.89
2022-08-17T03:38:53.457Z,14.89
2022-08-17T03:39:52.491Z,14.89
2022-08-17T03:40:56.673Z,14.92
2022-08-17T03:41:53.417Z,14.89
2022-08-17T03:42:52.426Z,14.84
2022-08-17T03:43:52.401Z,14.88
2022-08-17T03:44:52.382Z,14.73
2022-08-17T03:45:52.369Z,14.79
2022-08-17T03:46:52.365Z,14.82
2022-08-17T03:47:52.389Z,14.79
2022-08-17T03:48:52.352Z,14.73
2022-08-17T03:49:52.342Z,14.58
2022-08-17T03:50:52.332Z,14.54
2022-08-17T03:51:52.327Z,14.58
2022-08-17T03:52:52.357Z,14.51
2022-08-17T03:53:52.312Z,14.58
2022-08-17T03:54:52.307Z,14.68
2022-08-17T03:55:52.296Z,14.62
2022-08-17T03:56:52.290Z,14.65
2022-08-17T03:57:52.306Z,14.73
2022-08-17T03:58:52.269Z,14.77
2022-08-17T03:59:52.265Z,14.78
2022-08-17T04:00:52.256Z,14.77
2022-08-17T04:01:52.312Z,14.82
2022-08-17T04:02:52.333Z,14.91
2022-08-17T04:03:52.236Z,14.92
2022-08-17T04:04:52.363Z,14.69
2022-08-17T04:05:52.232Z,14.70
2022-08-17T04:06:52.207Z,14.69
2022-08-17T04:07:52.228Z,14.69
2022-08-17T04:08:52.195Z,14.65
2022-08-17T04:09:52.187Z,14.73
2022-08-17T04:10:52.176Z,14.69
2022-08-17T04:11:52.185Z,14.84
2022-08-17T04:12:52.502Z,14.78
2022-08-17T04:13:52.153Z,14.82
2022-08-17T04:14:54.726Z,14.73
2022-08-17T04:15:52.134Z,14.72
2022-08-17T04:16:52.129Z,14.86
2022-08-17T04:17:52.147Z,14.77
2022-08-17T04:18:52.113Z,14.73
2022-08-17T04:19:53.139Z,14.82
2022-08-17T04:20:52.096Z,14.78
2022-08-17T04:21:52.093Z,14.86
2022-08-17T04:22:52.169Z,14.89
2022-08-17T04:23:52.097Z,14.88
2022-08-17T04:24:52.072Z,15.00
2022-08-17T04:25:52.060Z,14.97
2022-08-17T04:26:54.426Z,15.03
2022-08-17T04:27:52.067Z,15.14
2022-08-17T04:28:52.048Z,15.14
2022-08-17T04:29:54.995Z,15.18
2022-08-17T04:30:52.021Z,15.18
2022-08-17T04:31:52.018Z,15.18
2022-08-17T04:33:10.933Z,15.21
2022-08-17T04:33:52.994Z,15.19
2022-08-17T04:34:51.995Z,15.14
2022-08-17T04:35:52.004Z,15.33
2022-08-17T04:36:51.980Z,15.27
2022-08-17T04:37:51.997Z,15.28
2022-08-17T04:38:51.963Z,15.28
2022-08-17T04:39:51.999Z,15.35
2022-08-17T04:40:51.944Z,15.46
2022-08-17T04:41:51.940Z,15.42
2022-08-17T04:42:52.129Z,15.46
2022-08-17T04:43:53.922Z,15.61
2022-08-17T04:44:51.943Z,15.55
2022-08-17T04:45:55.765Z,15.51
2022-08-17T04:46:51.941Z,15.54
2022-08-17T04:47:51.919Z,15.33
2022-08-17T04:48:51.893Z,15.21
2022-08-17T04:49:51.881Z,15.24
2022-08-17T04:50:51.871Z,15.17
2022-08-17T04:51:55.838Z,15.11
2022-08-17T04:52:52.880Z,15.07
2022-08-17T04:53:54.472Z,15.04
2022-08-17T04:54:51.838Z,15.09
2022-08-17T04:55:51.837Z,15.06
2022-08-17T04:56:51.828Z,15.35
2022-08-17T04:57:51.844Z,15.72
2022-08-17T04:58:51.814Z,16.00
2022-08-17T04:59:51.804Z,16.32
2022-08-17T05:00:51.800Z,16.75
2022-08-17T05:01:51.786Z,17.33
2022-08-17T05:02:52.271Z,17.70
2022-08-17T05:03:51.773Z,18.23
2022-08-17T05:04:51.757Z,18.55
2022-08-17T05:05:51.748Z,18.80
2022-08-17T05:06:51.749Z,19.02
2022-08-17T05:07:51.729Z,19.33
2022-08-17T05:08:51.772Z,19.27
2022-08-17T05:09:51.719Z,19.40
2022-08-17T05:10:51.709Z,19.37
2022-08-17T05:11:51.779Z,19.81
2022-08-17T05:12:51.848Z,20.22
2022-08-17T05:13:51.732Z,20.58
2022-08-17T05:14:51.677Z,20.70
2022-08-17T05:15:51.675Z,20.37
2022-08-17T05:16:51.672Z,20.25
2022-08-17T05:17:51.651Z,20.19
2022-08-17T05:18:51.675Z,19.85
2022-08-17T05:19:52.185Z,19.58
2022-08-17T05:20:52.708Z,19.19
2022-08-17T05:21:51.625Z,19.49
2022-08-17T05:22:51.795Z,19.64
2022-08-17T05:23:56.229Z,19.79
2022-08-17T05:24:53.743Z,19.85
2022-08-17T05:25:51.601Z,20.03
2022-08-17T05:26:51.608Z,19.63
2022-08-17T05:27:51.600Z,19.64
2022-08-17T05:28:51.598Z,19.44
2022-08-17T05:29:51.569Z,19.54
2022-08-17T05:30:51.561Z,19.63
2022-08-17T05:31:51.554Z,20.24
2022-08-17T05:32:51.706Z,20.81
2022-08-17T05:33:51.544Z,21.22
2022-08-17T05:34:51.530Z,21.29
2022-08-17T05:35:51.517Z,21.67
2022-08-17T05:36:51.551Z,21.79
2022-08-17T05:37:51.530Z,21.58
2022-08-17T05:38:51.513Z,21.35
2022-08-17T05:39:51.542Z,21.43
2022-08-17T05:40:51.488Z,21.46
2022-08-17T05:41:51.474Z,21.67
2022-08-17T05:42:51.616Z,21.20
2022-08-17T05:43:56.073Z,20.88
2022-08-17T05:44:53.460Z,20.93
2022-08-17T05:45:54.841Z,20.84
2022-08-17T05:46:51.465Z,21.06
2022-08-17T05:47:51.480Z,21.29
2022-08-17T05:48:51.429Z,21.58
2022-08-17T05:49:51.408Z,21.72
2022-08-17T05:50:51.405Z,21.67
2022-08-17T05:51:51.413Z,21.35
2022-08-17T05:52:51.570Z,20.75
2022-08-17T05:53:51.379Z,20.69
2022-08-17T05:54:51.377Z,20.56
2022-08-17T05:55:51.365Z,20.56
2022-08-17T05:56:51.361Z,20.58
2022-08-17T05:57:53.396Z,20.56
2022-08-17T05:58:51.356Z,20.62
2022-08-17T05:59:51.332Z,20.66
2022-08-17T06:00:51.433Z,20.39
2022-08-17T06:01:51.320Z,20.29
2022-08-17T06:02:51.554Z,19.99
2022-08-17T06:03:51.329Z,19.84
2022-08-17T06:04:51.293Z,19.91
2022-08-17T06:05:51.287Z,19.91
2022-08-17T06:06:51.296Z,20.04
2022-08-17T06:07:51.296Z,20.04
2022-08-17T06:08:51.575Z,19.84
2022-08-17T06:09:51.256Z,19.58
2022-08-17T06:10:51.255Z,19.37
2022-08-17T06:11:53.702Z,19.34
2022-08-17T06:12:51.502Z,19.31
2022-08-17T06:13:51.254Z,19.15
2022-08-17T06:14:51.220Z,19.19
2022-08-17T06:15:51.206Z,19.12
2022-08-17T06:16:51.223Z,19.04
2022-08-17T06:17:51.193Z,19.39
2022-08-17T06:18:51.221Z,19.48
2022-08-17T06:19:51.180Z,19.58
2022-08-17T06:20:51.175Z,19.59
2022-08-17T06:21:51.171Z,19.73
2022-08-17T06:22:51.386Z,19.44
2022-08-17T06:23:51.185Z,19.41
2022-08-17T06:24:51.145Z,19.52
2022-08-17T06:25:51.137Z,19.69
2022-08-17T06:26:51.125Z,19.84
2022-08-17T06:27:53.657Z,19.94
2022-08-17T06:28:51.155Z,19.91
2022-08-17T06:29:51.107Z,20.03
2022-08-17T06:30:59.560Z,20.26
2022-08-17T06:31:52.092Z,20.51
2022-08-17T06:32:51.350Z,20.60
2022-08-17T06:33:51.128Z,20.62
2022-08-17T06:34:51.071Z,20.52
2022-08-17T06:35:51.062Z,20.19
2022-08-17T06:36:51.047Z,20.13
2022-08-17T06:37:51.072Z,20.29
2022-08-17T06:38:51.064Z,20.47
2022-08-17T06:39:51.107Z,20.04
2022-08-17T06:40:51.019Z,19.44
2022-08-17T06:41:51.018Z,19.41
2022-08-17T06:43:02.886Z,19.39
2022-08-17T06:43:52.047Z,19.37
2022-08-17T06:44:51.593Z,19.36
2022-08-17T06:45:50.985Z,19.69
2022-08-17T06:46:50.978Z,19.74
2022-08-17T06:47:50.969Z,19.70
2022-08-17T06:48:50.985Z,19.67
2022-08-17T06:49:55.243Z,19.73
2022-08-17T06:50:51.945Z,19.99
2022-08-17T06:51:50.946Z,19.69
2022-08-17T06:52:50.931Z,19.70
2022-08-17T06:53:50.963Z,19.89
2022-08-17T06:54:50.917Z,20.03
2022-08-17T06:55:50.925Z,20.03
2022-08-17T06:56:52.700Z,20.26
2022-08-17T06:57:50.912Z,20.65
2022-08-17T06:58:50.916Z,20.69
2022-08-17T06:59:55.876Z,20.96
2022-08-17T07:00:55.387Z,20.97
2022-08-17T07:01:51.875Z,21.20
2022-08-17T07:02:52.631Z,21.00
2022-08-17T07:03:50.877Z,21.21
2022-08-17T07:04:50.839Z,21.29
2022-08-17T07:05:50.821Z,21.20
2022-08-17T07:06:51.822Z,20.92
2022-08-17T07:07:50.815Z,20.60
2022-08-17T07:08:50.840Z,20.51
2022-08-17T07:09:50.808Z,20.67
2022-08-17T07:10:50.794Z,21.06
2022-08-17T07:11:50.790Z,21.39
2022-08-17T07:12:51.025Z,21.46
2022-08-17T07:13:51.613Z,21.54
2022-08-17T07:14:50.762Z,21.64
2022-08-17T07:15:54.005Z,21.54
2022-08-17T07:16:52.758Z,21.69
2022-08-17T07:17:50.743Z,21.85
2022-08-17T07:18:50.761Z,21.64
2022-08-17T07:19:50.726Z,21.36
2022-08-17T07:20:50.717Z,21.29
2022-08-17T07:21:50.737Z,21.60
2022-08-17T07:22:59.260Z,21.46
2022-08-17T07:23:51.733Z,21.43
2022-08-17T07:24:50.684Z,21.66
2022-08-17T07:25:50.677Z,21.98
2022-08-17T07:26:50.683Z,22.39
2022-08-17T07:27:50.741Z,22.54
2022-08-17T07:28:50.685Z,22.39
2022-08-17T07:29:50.650Z,22.57
2022-08-17T07:30:50.640Z,22.63
2022-08-17T07:31:50.680Z,22.51
2022-08-17T07:32:50.627Z,22.43
2022-08-17T07:33:50.641Z,22.69
2022-08-17T07:34:50.639Z,22.83
2022-08-17T07:35:50.605Z,22.17
2022-08-17T07:36:50.597Z,21.85
2022-08-17T07:37:50.805Z,21.77
2022-08-17T07:38:50.580Z,21.83
2022-08-17T07:40:15.609Z,22.11
2022-08-17T07:40:51.565Z,22.32
2022-08-17T07:41:57.504Z,22.44
2022-08-17T07:43:23.307Z,22.23
2022-08-17T07:43:50.546Z,22.62
2022-08-17T07:44:50.549Z,23.00
2022-08-17T07:45:50.521Z,22.96
2022-08-17T07:46:50.517Z,22.87
2022-08-17T07:47:50.693Z,22.99
2022-08-17T07:48:51.267Z,23.28
2022-08-17T07:49:50.523Z,23.44
2022-08-17T07:50:50.707Z,23.54
2022-08-17T07:51:50.544Z,23.32
2022-08-17T07:52:52.493Z,23.24
2022-08-17T07:53:50.469Z,23.48
2022-08-17T07:54:50.478Z,23.76
2022-08-17T07:55:50.445Z,23.84
2022-08-17T07:56:50.436Z,23.86
2022-08-17T07:57:50.545Z,23.68
2022-08-17T07:58:50.424Z,23.99
2022-08-17T07:59:50.445Z,24.32
2022-08-17T08:00:50.415Z,24.61
2022-08-17T08:01:55.510Z,25.03
2022-08-17T08:02:51.394Z,25.10
2022-08-17T08:03:52.596Z,24.66
2022-08-17T08:05:00.546Z,24.32
2022-08-17T08:05:52.379Z,24.54
2022-08-17T08:06:50.365Z,24.70
2022-08-17T08:07:50.688Z,24.68
2022-08-17T08:08:50.359Z,25.11
2022-08-17T08:09:50.379Z,25.17
2022-08-17T08:10:50.340Z,25.10
2022-08-17T08:11:50.334Z,24.76
2022-08-17T08:12:53.706Z,24.63
2022-08-17T08:13:50.313Z,24.53
2022-08-17T08:14:50.341Z,24.57
2022-08-17T08:15:53.682Z,24.47
2022-08-17T08:16:50.293Z,24.73
2022-08-17T08:17:50.505Z,24.85
2022-08-17T08:18:56.085Z,25.29
2022-08-17T08:19:51.299Z,25.66
2022-08-17T08:20:53.420Z,25.72
2022-08-17T08:21:50.267Z,25.77
2022-08-17T08:22:50.253Z,25.69
2022-08-17T08:23:50.243Z,25.48
2022-08-17T08:24:50.275Z,25.88
2022-08-17T08:25:53.483Z,26.13
2022-08-17T08:26:51.223Z,26.48
2022-08-17T08:27:50.521Z,26.51
2022-08-17T08:28:50.199Z,26.34
2022-08-17T08:29:50.220Z,26.63
2022-08-17T08:30:50.193Z,26.63
2022-08-17T08:31:50.183Z,26.41
2022-08-17T08:32:50.518Z,26.43
2022-08-17T08:33:50.167Z,26.43
2022-08-17T08:35:01.965Z,26.58
2022-08-17T08:35:51.179Z,26.63
2022-08-17T08:37:02.030Z,26.71
2022-08-17T08:37:51.174Z,26.75
2022-08-17T08:38:50.136Z,26.93
2022-08-17T08:39:50.205Z,27.12
2022-08-17T08:40:50.137Z,27.20
2022-08-17T08:41:50.296Z,26.75
2022-08-17T08:42:50.179Z,26.74
2022-08-17T08:43:53.056Z,26.93
2022-08-17T08:45:00.030Z,26.62
2022-08-17T08:45:51.100Z,26.73
2022-08-17T08:46:50.081Z,27.00
2022-08-17T08:47:50.213Z,27.42
2022-08-17T08:48:56.014Z,27.60
2022-08-17T08:50:06.117Z,27.44
2022-08-17T08:50:52.055Z,27.17
2022-08-17T08:51:50.639Z,26.92
2022-08-17T08:52:50.023Z,26.81
2022-08-17T08:53:50.014Z,26.52
2022-08-17T08:54:50.019Z,26.58
2022-08-17T08:55:50.027Z,26.60
2022-08-17T08:57:21.889Z,26.95
2022-08-17T08:57:52.094Z,27.22
2022-08-17T08:58:49.988Z,27.32
2022-08-17T08:59:57.881Z,27.48
2022-08-17T09:00:50.989Z,27.71
2022-08-17T09:01:49.987Z,28.12
2022-08-17T09:02:49.948Z,28.54
2022-08-17T09:03:53.070Z,28.97
2022-08-17T09:05:13.537Z,28.85
2022-08-17T09:05:51.947Z,28.01
2022-08-17T09:06:49.908Z,27.70
2022-08-17T09:07:50.078Z,27.95
2022-08-17T09:08:49.906Z,27.78
2022-08-17T09:09:49.897Z,27.17
2022-08-17T09:10:49.907Z,27.47
2022-08-17T09:12:02.081Z,27.68
2022-08-17T09:12:50.865Z,28.19
2022-08-17T09:13:54.664Z,28.64
2022-08-17T09:14:50.848Z,28.96
2022-08-17T09:15:49.865Z,29.23
2022-08-17T09:16:49.842Z,29.17
2022-08-17T09:17:55.733Z,29.02
2022-08-17T09:19:03.411Z,28.76
2022-08-17T09:19:50.822Z,28.86
2022-08-17T09:20:50.446Z,28.60
2022-08-17T09:21:50.797Z,28.27
2022-08-17T09:22:49.797Z,28.19
2022-08-17T09:23:49.783Z,28.14
2022-08-17T09:24:49.776Z,28.05
2022-08-17T09:25:49.817Z,27.98
2022-08-17T09:26:49.770Z,28.08
2022-08-17T09:27:50.011Z,28.60
2022-08-17T09:28:49.750Z,29.16
2022-08-17T09:29:49.785Z,29.27
2022-08-17T09:30:49.737Z,29.45
2022-08-17T09:31:49.759Z,29.75
2022-08-17T09:32:49.725Z,29.75
2022-08-17T09:33:49.710Z,29.94
2022-08-17T09:34:49.730Z,30.27
2022-08-17T09:35:49.710Z,29.98
2022-08-17T09:36:49.690Z,29.54
2022-08-17T09:37:49.895Z,29.24
2022-08-17T09:38:49.673Z,28.59
2022-08-17T09:39:49.766Z,28.72
2022-08-17T09:40:49.677Z,29.19
2022-08-17T09:41:49.656Z,29.72
2022-08-17T09:42:49.654Z,29.91
2022-08-17T09:43:49.649Z,29.84
2022-08-17T09:44:49.650Z,29.84
2022-08-17T09:45:49.661Z,30.03
2022-08-17T09:46:49.621Z,29.68
2022-08-17T09:47:49.858Z,29.51
2022-08-17T09:48:49.596Z,29.49
2022-08-17T09:49:49.606Z,29.73
2022-08-17T09:51:05.454Z,30.06
2022-08-17T09:51:50.589Z,30.37
2022-08-17T09:52:49.569Z,30.57
2022-08-17T09:53:49.844Z,30.80
2022-08-17T09:54:50.566Z,30.68
2022-08-17T09:55:49.589Z,30.62
2022-08-17T09:57:00.858Z,30.77
2022-08-17T09:57:51.730Z,30.65
2022-08-17T09:58:49.535Z,30.80
2022-08-17T09:59:49.521Z,30.75
2022-08-17T10:00:49.579Z,30.85
2022-08-17T10:01:49.513Z,30.66
2022-08-17T10:02:49.502Z,30.85
2022-08-17T10:03:49.509Z,31.10
2022-08-17T10:04:49.495Z,31.18
2022-08-17T10:05:49.498Z,31.33
2022-08-17T10:06:50.475Z,31.47
2022-08-17T10:07:49.605Z,31.29
2022-08-17T10:08:49.462Z,31.31
2022-08-17T10:09:49.453Z,31.42
2022-08-17T10:10:52.399Z,31.59
2022-08-17T10:11:50.622Z,31.61
2022-08-17T10:12:49.428Z,31.73
2022-08-17T10:13:52.880Z,31.84
2022-08-17T10:14:53.533Z,31.87
2022-08-17T10:15:50.431Z,31.89
2022-08-17T10:16:49.396Z,31.73
2022-08-17T10:17:49.482Z,31.52
2022-08-17T10:18:49.377Z,31.34
2022-08-17T10:19:49.394Z,30.99
2022-08-17T10:20:49.389Z,31.18
2022-08-17T10:21:49.356Z,31.20
2022-08-17T10:22:54.766Z,31.39
2022-08-17T10:23:50.408Z,31.24
2022-08-17T10:25:23.088Z,31.27
2022-08-17T10:25:55.009Z,31.42
2022-08-17T10:26:56.808Z,31.58
2022-08-17T10:27:50.606Z,31.36
2022-08-17T10:28:49.308Z,31.27
2022-08-17T10:29:49.927Z,31.37
2022-08-17T10:30:49.319Z,31.42
2022-08-17T10:31:49.299Z,31.55
2022-08-17T10:32:49.279Z,31.54
2022-08-17T10:33:49.283Z,31.62
2022-08-17T10:34:49.265Z,31.77
2022-08-17T10:35:49.308Z,31.73
2022-08-17T10:36:49.258Z,31.65
2022-08-17T10:37:49.340Z,31.51
2022-08-17T10:38:49.232Z,31.42
2022-08-17T10:39:51.982Z,31.39
2022-08-17T10:40:49.349Z,31.20
2022-08-17T10:41:49.218Z,31.18
2022-08-17T10:42:49.217Z,31.15
2022-08-17T10:44:37.346Z,30.75
2022-08-17T10:44:50.186Z,30.84
2022-08-17T10:45:49.213Z,30.85
2022-08-17T10:46:50.171Z,31.02
2022-08-17T10:47:55.360Z,31.22
2022-08-17T10:48:51.167Z,31.20
2022-08-17T10:49:49.233Z,31.28
2022-08-17T10:50:49.174Z,31.42
2022-08-17T10:51:49.339Z,31.52
2022-08-17T10:52:49.131Z,31.21
2022-08-17T10:53:49.116Z,31.27
2022-08-17T10:54:49.118Z,31.27
2022-08-17T10:55:49.100Z,31.12
2022-08-17T10:56:49.134Z,31.18
2022-08-17T10:57:49.225Z,31.07
2022-08-17T10:58:49.147Z,31.15
2022-08-17T10:59:49.079Z,31.18
2022-08-17T11:00:49.130Z,31.34
2022-08-17T11:01:49.220Z,31.34
2022-08-17T11:02:49.254Z,31.12
2022-08-17T11:03:49.039Z,31.17
2022-08-17T11:04:49.041Z,31.24
2022-08-17T11:05:49.036Z,31.20
2022-08-17T11:06:49.048Z,31.17
2022-08-17T11:07:49.025Z,31.21
2022-08-17T11:08:48.997Z,31.28
2022-08-17T11:09:48.991Z,31.29
2022-08-17T11:10:52.091Z,31.20
2022-08-17T11:11:50.080Z,31.27
2022-08-17T11:12:49.026Z,31.25
2022-08-17T11:13:48.974Z,31.07
2022-08-17T11:14:48.961Z,31.05
2022-08-17T11:15:48.949Z,31.09
2022-08-17T11:16:48.970Z,31.27
2022-08-17T11:17:48.956Z,31.14
2022-08-17T11:18:48.930Z,31.12
2022-08-17T11:19:48.926Z,31.02
2022-08-17T11:20:48.924Z,30.88
2022-08-17T11:21:49.044Z,30.85
2022-08-17T11:22:48.951Z,30.50
2022-08-17T11:23:48.896Z,30.15
2022-08-17T11:24:48.891Z,30.12
2022-08-17T11:25:48.876Z,30.09
2022-08-17T11:26:48.906Z,30.12
2022-08-17T11:27:48.862Z,30.18
2022-08-17T11:28:48.876Z,30.03
2022-08-17T11:29:52.625Z,30.05
2022-08-17T11:30:50.848Z,30.19
2022-08-17T11:31:48.863Z,30.06
2022-08-17T11:32:54.737Z,29.98
2022-08-17T11:33:49.822Z,29.95
2022-08-17T11:34:48.815Z,29.94
2022-08-17T11:35:48.819Z,30.06
2022-08-17T11:36:48.823Z,29.97
2022-08-17T11:37:48.793Z,29.93
2022-08-17T11:38:48.787Z,29.93
2022-08-17T11:39:48.868Z,29.94
2022-08-17T11:40:48.768Z,29.95
2022-08-17T11:41:48.801Z,29.93
2022-08-17T11:42:48.864Z,30.05
2022-08-17T11:43:48.749Z,30.03
2022-08-17T11:44:48.731Z,30.09
2022-08-17T11:45:48.727Z,30.16
2022-08-17T11:46:51.806Z,30.30
2022-08-17T11:48:09.095Z,30.19
2022-08-17T11:48:50.709Z,30.03
2022-08-17T11:49:48.711Z,30.06
2022-08-17T11:50:48.703Z,29.94
2022-08-17T11:51:48.715Z,29.97
2022-08-17T11:52:48.685Z,30.21
2022-08-17T11:53:48.698Z,30.32
2022-08-17T11:54:48.669Z,30.55
2022-08-17T11:55:48.724Z,30.65
2022-08-17T11:56:48.718Z,30.88
2022-08-17T11:57:48.702Z,31.07
2022-08-17T11:58:49.647Z,31.22
2022-08-17T11:59:48.643Z,31.49
2022-08-17T12:00:48.664Z,31.69
2022-08-17T12:01:48.674Z,31.87
2022-08-17T12:02:48.965Z,31.85
2022-08-17T12:03:55.204Z,31.81
2022-08-17T12:04:49.639Z,31.90
2022-08-17T12:05:48.589Z,31.99
2022-08-17T12:06:48.608Z,31.93
2022-08-17T12:07:48.746Z,32.00
2022-08-17T12:08:48.561Z,31.81
2022-08-17T12:09:49.557Z,31.85
2022-08-17T12:10:48.556Z,31.92
2022-08-17T12:11:55.687Z,31.76
2022-08-17T12:12:49.543Z,31.66
2022-08-17T12:13:48.524Z,31.37
2022-08-17T12:15:50.530Z,31.10
2022-08-17T12:16:48.531Z,31.02
2022-08-17T12:17:48.502Z,30.85
2022-08-17T12:18:48.503Z,30.91
2022-08-17T12:19:48.491Z,30.97
2022-08-17T12:20:50.957Z,30.83
2022-08-17T12:21:48.489Z,30.73
2022-08-17T12:22:48.504Z,30.65
2022-08-17T12:23:48.453Z,30.72
2022-08-17T12:24:48.438Z,30.61
2022-08-17T12:25:48.450Z,30.46
2022-08-17T12:26:48.458Z,30.25
2022-08-17T12:28:06.030Z,30.08
2022-08-17T12:28:49.408Z,30.08
2022-08-17T12:29:48.418Z,30.05
2022-08-17T12:30:48.400Z,30.08
2022-08-17T12:31:48.431Z,30.00
2022-08-17T12:32:48.384Z,29.91
2022-08-17T12:33:48.382Z,29.86
2022-08-17T12:34:48.367Z,29.94
2022-08-17T12:35:48.366Z,29.75
2022-08-17T12:36:48.384Z,29.60
2022-08-17T12:37:48.349Z,29.61
2022-08-17T12:38:48.339Z,29.66
2022-08-17T12:39:48.356Z,29.56
2022-08-17T12:40:48.326Z,29.50
2022-08-17T12:41:48.375Z,29.39
2022-08-17T12:42:48.308Z,29.34
2022-08-17T12:43:48.312Z,29.38
2022-08-17T12:44:50.302Z,29.39
2022-08-17T12:45:48.287Z,29.26
2022-08-17T12:46:48.274Z,29.05
2022-08-17T12:47:48.299Z,29.07
2022-08-17T12:48:59.115Z,29.08
2022-08-17T12:49:49.252Z,29.19
2022-08-17T12:50:48.249Z,29.19
2022-08-17T12:51:48.237Z,29.19
2022-08-17T12:52:48.262Z,29.16
2022-08-17T12:53:48.222Z,29.08